sensor_id;sensor_type;location;lat;lon;timestamp;temperature;humidity
10057;DHT22;5068;51.286;7.518;2023-04-26T00:01:16;2.30;54.50
10057;DHT22;5068;51.286;7.518;2023-04-26T00:02:49;2.30;54.50
10057;DHT22;5068;51.286;7.518;2023-04-26T00:04:22;2.30;54.50
10057;DHT22;5068;51.286;7.518;2023-04-26T00:05:55;2.30;54.60
10057;DHT22;5068;51.286;7.518;2023-04-26T00:07:29;2.30;54.70
10057;DHT22;5068;51.286;7.518;2023-04-26T00:09:02;2.30;54.70
10057;DHT22;5068;51.286;7.518;2023-04-26T00:10:36;2.20;54.70
10057;DHT22;5068;51.286;7.518;2023-04-26T00:12:09;2.30;54.70
10057;DHT22;5068;51.286;7.518;2023-04-26T00:13:43;2.30;54.60
10057;DHT22;5068;51.286;7.518;2023-04-26T00:15:17;2.20;54.50
10057;DHT22;5068;51.286;7.518;2023-04-26T00:16:50;2.20;54.40
10057;DHT22;5068;51.286;7.518;2023-04-26T00:18:23;2.20;54.40
10057;DHT22;5068;51.286;7.518;2023-04-26T00:19:57;2.20;54.40
10057;DHT22;5068;51.286;7.518;2023-04-26T00:21:30;2.10;54.30
10057;DHT22;5068;51.286;7.518;2023-04-26T00:23:02;2.10;54.30
10057;DHT22;5068;51.286;7.518;2023-04-26T00:24:35;2.10;54.40
10057;DHT22;5068;51.286;7.518;2023-04-26T00:26:08;2.10;54.40
10057;DHT22;5068;51.286;7.518;2023-04-26T00:27:41;2.10;54.40
10057;DHT22;5068;51.286;7.518;2023-04-26T00:29:16;2.10;54.50
10057;DHT22;5068;51.286;7.518;2023-04-26T00:30:49;2.00;54.50
10057;DHT22;5068;51.286;7.518;2023-04-26T00:32:22;2.00;54.50
10057;DHT22;5068;51.286;7.518;2023-04-26T00:33:55;1.90;54.40
10057;DHT22;5068;51.286;7.518;2023-04-26T00:35:29;1.90;54.50
10057;DHT22;5068;51.286;7.518;2023-04-26T00:37:02;1.90;54.60
10057;DHT22;5068;51.286;7.518;2023-04-26T00:38:37;1.90;54.70
10057;DHT22;5068;51.286;7.518;2023-04-26T00:40:11;1.90;55.00
10057;DHT22;5068;51.286;7.518;2023-04-26T00:41:47;1.80;54.70
10057;DHT22;5068;51.286;7.518;2023-04-26T00:43:20;1.80;54.70
10057;DHT22;5068;51.286;7.518;2023-04-26T00:44:55;1.80;54.70
10057;DHT22;5068;51.286;7.518;2023-04-26T00:46:28;1.80;54.80
10057;DHT22;5068;51.286;7.518;2023-04-26T00:48:02;1.80;54.90
10057;DHT22;5068;51.286;7.518;2023-04-26T00:49:36;1.70;54.90
10057;DHT22;5068;51.286;7.518;2023-04-26T00:51:08;1.70;55.00
10057;DHT22;5068;51.286;7.518;2023-04-26T00:52:42;1.70;55.10
10057;DHT22;5068;51.286;7.518;2023-04-26T00:54:18;1.70;55.10
10057;DHT22;5068;51.286;7.518;2023-04-26T00:55:52;1.70;55.20
10057;DHT22;5068;51.286;7.518;2023-04-26T00:57:26;1.60;55.20
10057;DHT22;5068;51.286;7.518;2023-04-26T00:58:59;1.60;55.30
10057;DHT22;5068;51.286;7.518;2023-04-26T01:00:34;1.60;55.40
10057;DHT22;5068;51.286;7.518;2023-04-26T01:02:07;1.60;55.40
10057;DHT22;5068;51.286;7.518;2023-04-26T01:03:40;1.60;55.40
10057;DHT22;5068;51.286;7.518;2023-04-26T01:05:15;1.60;55.50
10057;DHT22;5068;51.286;7.518;2023-04-26T01:06:49;1.50;55.50
10057;DHT22;5068;51.286;7.518;2023-04-26T01:08:22;1.60;55.50
10057;DHT22;5068;51.286;7.518;2023-04-26T01:09:57;1.50;55.50
10057;DHT22;5068;51.286;7.518;2023-04-26T01:11:34;1.50;56.10
10057;DHT22;5068;51.286;7.518;2023-04-26T01:13:07;1.50;55.40
10057;DHT22;5068;51.286;7.518;2023-04-26T01:14:41;1.50;55.30
10057;DHT22;5068;51.286;7.518;2023-04-26T01:16:18;1.50;55.40
10057;DHT22;5068;51.286;7.518;2023-04-26T01:17:52;1.50;55.50
10057;DHT22;5068;51.286;7.518;2023-04-26T01:19:26;1.50;55.50
10057;DHT22;5068;51.286;7.518;2023-04-26T01:21:00;1.50;55.50
10057;DHT22;5068;51.286;7.518;2023-04-26T01:22:36;1.40;55.40
10057;DHT22;5068;51.286;7.518;2023-04-26T01:24:10;1.40;55.50
10057;DHT22;5068;51.286;7.518;2023-04-26T01:25:43;1.40;55.60
10057;DHT22;5068;51.286;7.518;2023-04-26T01:27:17;1.40;55.60
10057;DHT22;5068;51.286;7.518;2023-04-26T01:28:51;1.40;55.60
10057;DHT22;5068;51.286;7.518;2023-04-26T01:30:25;1.40;55.60
10057;DHT22;5068;51.286;7.518;2023-04-26T01:31:58;1.30;55.50
10057;DHT22;5068;51.286;7.518;2023-04-26T01:33:32;1.30;55.50
10057;DHT22;5068;51.286;7.518;2023-04-26T01:35:06;1.30;55.60
10057;DHT22;5068;51.286;7.518;2023-04-26T01:36:39;1.30;55.70
10057;DHT22;5068;51.286;7.518;2023-04-26T01:38:13;1.30;55.80
10057;DHT22;5068;51.286;7.518;2023-04-26T01:39:48;1.30;55.80
10057;DHT22;5068;51.286;7.518;2023-04-26T01:41:24;1.20;55.70
10057;DHT22;5068;51.286;7.518;2023-04-26T01:42:56;1.30;55.80
10057;DHT22;5068;51.286;7.518;2023-04-26T01:44:32;1.20;55.70
10057;DHT22;5068;51.286;7.518;2023-04-26T01:46:05;1.20;55.70
10057;DHT22;5068;51.286;7.518;2023-04-26T01:47:38;1.20;55.80
10057;DHT22;5068;51.286;7.518;2023-04-26T01:49:11;1.20;55.90
10057;DHT22;5068;51.286;7.518;2023-04-26T01:50:44;1.20;56.00
10057;DHT22;5068;51.286;7.518;2023-04-26T01:52:17;1.20;56.00
10057;DHT22;5068;51.286;7.518;2023-04-26T01:53:52;1.20;56.00
10057;DHT22;5068;51.286;7.518;2023-04-26T01:55:24;1.20;56.00
10057;DHT22;5068;51.286;7.518;2023-04-26T01:56:57;1.10;55.90
10057;DHT22;5068;51.286;7.518;2023-04-26T01:58:31;1.10;55.90
10057;DHT22;5068;51.286;7.518;2023-04-26T02:00:05;1.10;55.90
10057;DHT22;5068;51.286;7.518;2023-04-26T02:01:45;1.10;56.00
10057;DHT22;5068;51.286;7.518;2023-04-26T02:03:18;1.10;55.90
10057;DHT22;5068;51.286;7.518;2023-04-26T02:04:54;1.10;55.90
10057;DHT22;5068;51.286;7.518;2023-04-26T02:06:30;1.10;55.90
10057;DHT22;5068;51.286;7.518;2023-04-26T02:08:03;1.10;55.90
10057;DHT22;5068;51.286;7.518;2023-04-26T02:09:38;1.00;55.90
10057;DHT22;5068;51.286;7.518;2023-04-26T02:11:12;1.00;55.90
10057;DHT22;5068;51.286;7.518;2023-04-26T02:12:45;1.00;55.90
10057;DHT22;5068;51.286;7.518;2023-04-26T02:14:19;1.00;55.80
10057;DHT22;5068;51.286;7.518;2023-04-26T02:15:52;1.00;55.80
10057;DHT22;5068;51.286;7.518;2023-04-26T02:17:27;1.00;55.90
10057;DHT22;5068;51.286;7.518;2023-04-26T02:19:02;1.00;56.50
10057;DHT22;5068;51.286;7.518;2023-04-26T02:20:36;1.00;55.80
10057;DHT22;5068;51.286;7.518;2023-04-26T02:22:09;1.00;55.80
10057;DHT22;5068;51.286;7.518;2023-04-26T02:23:45;0.90;55.80
10057;DHT22;5068;51.286;7.518;2023-04-26T02:25:19;0.90;55.80
10057;DHT22;5068;51.286;7.518;2023-04-26T02:26:52;0.90;55.80
10057;DHT22;5068;51.286;7.518;2023-04-26T02:28:26;0.90;55.80
10057;DHT22;5068;51.286;7.518;2023-04-26T02:29:59;0.90;55.80
10057;DHT22;5068;51.286;7.518;2023-04-26T02:31:33;0.80;55.70
10057;DHT22;5068;51.286;7.518;2023-04-26T02:33:07;0.80;55.80
10057;DHT22;5068;51.286;7.518;2023-04-26T02:34:43;0.80;56.00
10057;DHT22;5068;51.286;7.518;2023-04-26T02:36:15;0.80;56.10
10057;DHT22;5068;51.286;7.518;2023-04-26T02:37:49;0.80;56.10
10057;DHT22;5068;51.286;7.518;2023-04-26T02:39:23;0.70;56.10
10057;DHT22;5068;51.286;7.518;2023-04-26T02:40:59;0.80;56.10
10057;DHT22;5068;51.286;7.518;2023-04-26T02:42:32;0.70;56.70
10057;DHT22;5068;51.286;7.518;2023-04-26T02:44:06;0.70;56.10
10057;DHT22;5068;51.286;7.518;2023-04-26T02:45:40;0.70;56.20
10057;DHT22;5068;51.286;7.518;2023-04-26T02:47:16;0.70;56.20
10057;DHT22;5068;51.286;7.518;2023-04-26T02:48:50;0.70;56.30
10057;DHT22;5068;51.286;7.518;2023-04-26T02:50:23;0.70;56.40
10057;DHT22;5068;51.286;7.518;2023-04-26T02:51:56;0.70;56.40
10057;DHT22;5068;51.286;7.518;2023-04-26T02:53:29;0.70;56.40
10057;DHT22;5068;51.286;7.518;2023-04-26T02:55:02;0.60;56.40
10057;DHT22;5068;51.286;7.518;2023-04-26T02:56:37;0.70;56.40
10057;DHT22;5068;51.286;7.518;2023-04-26T02:58:09;0.60;56.40
10057;DHT22;5068;51.286;7.518;2023-04-26T02:59:43;0.60;56.30
10057;DHT22;5068;51.286;7.518;2023-04-26T03:01:16;0.60;56.30
10057;DHT22;5068;51.286;7.518;2023-04-26T03:02:50;0.60;56.30
10057;DHT22;5068;51.286;7.518;2023-04-26T03:04:24;0.60;56.30
10057;DHT22;5068;51.286;7.518;2023-04-26T03:05:56;0.60;56.40
10057;DHT22;5068;51.286;7.518;2023-04-26T03:07:29;0.60;56.40
10057;DHT22;5068;51.286;7.518;2023-04-26T03:09:03;0.60;56.40
10057;DHT22;5068;51.286;7.518;2023-04-26T03:10:37;0.60;56.50
10057;DHT22;5068;51.286;7.518;2023-04-26T03:12:12;0.50;56.50
10057;DHT22;5068;51.286;7.518;2023-04-26T03:13:45;0.50;56.50
10057;DHT22;5068;51.286;7.518;2023-04-26T03:15:18;0.50;56.50
10057;DHT22;5068;51.286;7.518;2023-04-26T03:16:51;0.50;56.60
10057;DHT22;5068;51.286;7.518;2023-04-26T03:18:25;0.50;56.50
10057;DHT22;5068;51.286;7.518;2023-04-26T03:19:59;0.50;56.50
10057;DHT22;5068;51.286;7.518;2023-04-26T03:21:33;0.50;56.50
10057;DHT22;5068;51.286;7.518;2023-04-26T03:23:06;0.50;56.50
10057;DHT22;5068;51.286;7.518;2023-04-26T03:24:41;0.50;56.50
10057;DHT22;5068;51.286;7.518;2023-04-26T03:26:14;0.50;56.50
10057;DHT22;5068;51.286;7.518;2023-04-26T03:27:49;0.50;56.50
10057;DHT22;5068;51.286;7.518;2023-04-26T03:29:22;0.50;56.40
10057;DHT22;5068;51.286;7.518;2023-04-26T03:30:55;0.50;57.00
10057;DHT22;5068;51.286;7.518;2023-04-26T03:32:29;0.40;56.30
10057;DHT22;5068;51.286;7.518;2023-04-26T03:34:02;0.40;56.40
10057;DHT22;5068;51.286;7.518;2023-04-26T03:35:36;0.40;56.40
10057;DHT22;5068;51.286;7.518;2023-04-26T03:37:09;0.40;56.40
10057;DHT22;5068;51.286;7.518;2023-04-26T03:38:43;0.40;56.70
10057;DHT22;5068;51.286;7.518;2023-04-26T03:40:16;0.30;56.30
10057;DHT22;5068;51.286;7.518;2023-04-26T03:41:50;0.30;56.40
10057;DHT22;5068;51.286;7.518;2023-04-26T03:43:24;0.30;56.40
10057;DHT22;5068;51.286;7.518;2023-04-26T03:44:57;0.30;56.40
10057;DHT22;5068;51.286;7.518;2023-04-26T03:46:31;0.30;56.40
10057;DHT22;5068;51.286;7.518;2023-04-26T03:48:04;0.30;56.50
10057;DHT22;5068;51.286;7.518;2023-04-26T03:49:37;0.30;56.60
10057;DHT22;5068;51.286;7.518;2023-04-26T03:51:11;0.20;56.50
10057;DHT22;5068;51.286;7.518;2023-04-26T03:52:44;0.20;56.50
10057;DHT22;5068;51.286;7.518;2023-04-26T03:54:16;0.20;56.50
10057;DHT22;5068;51.286;7.518;2023-04-26T03:55:50;0.20;56.60
10057;DHT22;5068;51.286;7.518;2023-04-26T03:57:23;0.20;56.60
10057;DHT22;5068;51.286;7.518;2023-04-26T03:58:57;0.20;56.50
10057;DHT22;5068;51.286;7.518;2023-04-26T04:00:31;0.20;56.60
10057;DHT22;5068;51.286;7.518;2023-04-26T04:02:04;0.20;56.50
10057;DHT22;5068;51.286;7.518;2023-04-26T04:03:39;0.20;56.60
10057;DHT22;5068;51.286;7.518;2023-04-26T04:05:13;0.10;56.50
10057;DHT22;5068;51.286;7.518;2023-04-26T04:06:46;0.10;56.50
10057;DHT22;5068;51.286;7.518;2023-04-26T04:08:19;0.10;56.50
10057;DHT22;5068;51.286;7.518;2023-04-26T04:09:53;0.10;56.60
10057;DHT22;5068;51.286;7.518;2023-04-26T04:11:26;0.10;56.60
10057;DHT22;5068;51.286;7.518;2023-04-26T04:13:00;0.10;56.60
10057;DHT22;5068;51.286;7.518;2023-04-26T04:14:35;0.00;56.60
10057;DHT22;5068;51.286;7.518;2023-04-26T04:16:10;0.00;56.70
10057;DHT22;5068;51.286;7.518;2023-04-26T04:17:44;0.00;56.60
10057;DHT22;5068;51.286;7.518;2023-04-26T04:19:18;0.00;56.60
10057;DHT22;5068;51.286;7.518;2023-04-26T04:20:52;0.00;56.60
10057;DHT22;5068;51.286;7.518;2023-04-26T04:22:25;0.00;56.60
10057;DHT22;5068;51.286;7.518;2023-04-26T04:23:58;0.00;56.70
10057;DHT22;5068;51.286;7.518;2023-04-26T04:25:32;-0.10;56.60
10057;DHT22;5068;51.286;7.518;2023-04-26T04:27:07;-0.10;56.70
10057;DHT22;5068;51.286;7.518;2023-04-26T04:28:43;-0.10;56.80
10057;DHT22;5068;51.286;7.518;2023-04-26T04:30:19;-0.10;56.90
10057;DHT22;5068;51.286;7.518;2023-04-26T04:31:53;-0.10;57.00
10057;DHT22;5068;51.286;7.518;2023-04-26T04:33:26;-0.10;57.00
10057;DHT22;5068;51.286;7.518;2023-04-26T04:35:01;-0.10;57.10
10057;DHT22;5068;51.286;7.518;2023-04-26T04:36:36;-0.10;57.10
10057;DHT22;5068;51.286;7.518;2023-04-26T04:38:09;-0.20;57.00
10057;DHT22;5068;51.286;7.518;2023-04-26T04:39:43;-0.10;57.20
10057;DHT22;5068;51.286;7.518;2023-04-26T04:41:16;-0.10;57.20
10057;DHT22;5068;51.286;7.518;2023-04-26T04:42:51;-0.20;57.20
10057;DHT22;5068;51.286;7.518;2023-04-26T04:44:27;-0.20;57.30
10057;DHT22;5068;51.286;7.518;2023-04-26T04:46:02;-0.20;57.30
10057;DHT22;5068;51.286;7.518;2023-04-26T04:47:36;-0.20;57.30
10057;DHT22;5068;51.286;7.518;2023-04-26T04:49:11;-0.20;57.30
10057;DHT22;5068;51.286;7.518;2023-04-26T04:50:44;-0.20;57.30
10057;DHT22;5068;51.286;7.518;2023-04-26T04:52:17;-0.20;57.40
10057;DHT22;5068;51.286;7.518;2023-04-26T04:53:52;-0.20;57.50
10057;DHT22;5068;51.286;7.518;2023-04-26T04:55:26;-0.20;57.40
10057;DHT22;5068;51.286;7.518;2023-04-26T04:56:59;-0.20;57.40
10057;DHT22;5068;51.286;7.518;2023-04-26T04:58:34;-0.20;57.40
10057;DHT22;5068;51.286;7.518;2023-04-26T05:00:08;-0.20;57.40
10057;DHT22;5068;51.286;7.518;2023-04-26T05:01:50;-0.20;57.50
10057;DHT22;5068;51.286;7.518;2023-04-26T05:03:24;-0.20;57.50
10057;DHT22;5068;51.286;7.518;2023-04-26T05:04:57;-0.20;57.50
10057;DHT22;5068;51.286;7.518;2023-04-26T05:06:30;-0.20;57.50
10057;DHT22;5068;51.286;7.518;2023-04-26T05:08:04;-0.20;57.60
10057;DHT22;5068;51.286;7.518;2023-04-26T05:09:38;-0.20;57.60
10057;DHT22;5068;51.286;7.518;2023-04-26T05:11:11;-0.20;57.60
10057;DHT22;5068;51.286;7.518;2023-04-26T05:12:45;-0.20;57.60
10057;DHT22;5068;51.286;7.518;2023-04-26T05:14:18;-0.20;57.70
10057;DHT22;5068;51.286;7.518;2023-04-26T05:15:51;-0.20;57.70
10057;DHT22;5068;51.286;7.518;2023-04-26T05:17:26;-0.20;57.70
10057;DHT22;5068;51.286;7.518;2023-04-26T05:19:01;-0.20;57.70
10057;DHT22;5068;51.286;7.518;2023-04-26T05:20:37;-0.20;57.70
10057;DHT22;5068;51.286;7.518;2023-04-26T05:22:11;-0.20;57.70
10057;DHT22;5068;51.286;7.518;2023-04-26T05:23:50;-0.20;57.80
10057;DHT22;5068;51.286;7.518;2023-04-26T05:25:23;-0.20;57.80
10057;DHT22;5068;51.286;7.518;2023-04-26T05:27:07;-0.20;57.90
10057;DHT22;5068;51.286;7.518;2023-04-26T05:28:55;-0.10;58.00
10057;DHT22;5068;51.286;7.518;2023-04-26T05:30:34;-0.10;58.00
10057;DHT22;5068;51.286;7.518;2023-04-26T05:32:29;-0.10;58.10
10057;DHT22;5068;51.286;7.518;2023-04-26T05:34:19;-0.10;58.10
10057;DHT22;5068;51.286;7.518;2023-04-26T05:35:57;-0.10;58.10
10057;DHT22;5068;51.286;7.518;2023-04-26T05:37:48;-0.10;58.10
10057;DHT22;5068;51.286;7.518;2023-04-26T05:39:25;-0.10;58.20
10057;DHT22;5068;51.286;7.518;2023-04-26T05:40:59;-0.10;58.20
10057;DHT22;5068;51.286;7.518;2023-04-26T05:42:33;-0.10;58.30
10057;DHT22;5068;51.286;7.518;2023-04-26T05:44:06;-0.10;58.30
10057;DHT22;5068;51.286;7.518;2023-04-26T05:45:39;-0.10;58.40
10057;DHT22;5068;51.286;7.518;2023-04-26T05:47:12;0.00;58.60
10057;DHT22;5068;51.286;7.518;2023-04-26T05:48:47;0.00;58.60
10057;DHT22;5068;51.286;7.518;2023-04-26T05:50:21;0.00;58.80
10057;DHT22;5068;51.286;7.518;2023-04-26T05:51:54;0.00;58.80
10057;DHT22;5068;51.286;7.518;2023-04-26T05:53:27;0.00;58.90
10057;DHT22;5068;51.286;7.518;2023-04-26T05:55:01;0.00;59.10
10057;DHT22;5068;51.286;7.518;2023-04-26T05:56:36;0.10;59.40
10057;DHT22;5068;51.286;7.518;2023-04-26T05:58:10;0.10;59.60
10057;DHT22;5068;51.286;7.518;2023-04-26T05:59:44;0.10;59.70
10057;DHT22;5068;51.286;7.518;2023-04-26T06:01:18;0.20;59.90
10057;DHT22;5068;51.286;7.518;2023-04-26T06:02:51;0.20;59.90
10057;DHT22;5068;51.286;7.518;2023-04-26T06:04:26;0.20;60.00
10057;DHT22;5068;51.286;7.518;2023-04-26T06:06:13;0.30;60.20
10057;DHT22;5068;51.286;7.518;2023-04-26T06:07:47;0.30;60.30
10057;DHT22;5068;51.286;7.518;2023-04-26T06:09:22;0.40;60.40
10057;DHT22;5068;51.286;7.518;2023-04-26T06:10:55;0.40;60.30
10057;DHT22;5068;51.286;7.518;2023-04-26T06:12:28;0.50;60.40
10057;DHT22;5068;51.286;7.518;2023-04-26T06:14:02;0.50;60.50
10057;DHT22;5068;51.286;7.518;2023-04-26T06:15:36;0.60;60.60
10057;DHT22;5068;51.286;7.518;2023-04-26T06:17:09;0.60;60.60
10057;DHT22;5068;51.286;7.518;2023-04-26T06:18:42;0.70;61.50
10057;DHT22;5068;51.286;7.518;2023-04-26T06:20:17;0.80;60.70
10057;DHT22;5068;51.286;7.518;2023-04-26T06:21:51;0.80;60.90
10057;DHT22;5068;51.286;7.518;2023-04-26T06:23:26;0.90;61.00
10057;DHT22;5068;51.286;7.518;2023-04-26T06:24:59;0.90;61.00
10057;DHT22;5068;51.286;7.518;2023-04-26T06:26:32;1.00;61.10
10057;DHT22;5068;51.286;7.518;2023-04-26T06:28:05;1.10;61.10
10057;DHT22;5068;51.286;7.518;2023-04-26T06:29:39;1.10;61.00
10057;DHT22;5068;51.286;7.518;2023-04-26T06:31:12;1.20;61.00
10057;DHT22;5068;51.286;7.518;2023-04-26T06:32:45;1.20;61.00
10057;DHT22;5068;51.286;7.518;2023-04-26T06:34:19;1.30;61.00
10057;DHT22;5068;51.286;7.518;2023-04-26T06:35:53;1.40;61.20
10057;DHT22;5068;51.286;7.518;2023-04-26T06:37:28;1.50;61.30
10057;DHT22;5068;51.286;7.518;2023-04-26T06:39:01;1.50;61.50
10057;DHT22;5068;51.286;7.518;2023-04-26T06:40:34;1.60;61.40
10057;DHT22;5068;51.286;7.518;2023-04-26T06:42:08;1.70;61.30
10057;DHT22;5068;51.286;7.518;2023-04-26T06:44:10;1.80;61.20
10057;DHT22;5068;51.286;7.518;2023-04-26T06:45:47;1.90;61.20
10057;DHT22;5068;51.286;7.518;2023-04-26T06:47:23;1.90;61.00
10057;DHT22;5068;51.286;7.518;2023-04-26T06:49:00;2.00;60.90
10057;DHT22;5068;51.286;7.518;2023-04-26T06:50:36;2.10;61.10
10057;DHT22;5068;51.286;7.518;2023-04-26T06:52:12;2.20;61.20
10057;DHT22;5068;51.286;7.518;2023-04-26T06:53:45;2.30;61.10
10057;DHT22;5068;51.286;7.518;2023-04-26T06:55:21;2.30;60.90
10057;DHT22;5068;51.286;7.518;2023-04-26T06:56:55;2.40;60.90
10057;DHT22;5068;51.286;7.518;2023-04-26T06:58:32;2.50;60.80
10057;DHT22;5068;51.286;7.518;2023-04-26T07:00:06;2.60;61.00
10057;DHT22;5068;51.286;7.518;2023-04-26T07:01:41;2.60;61.20
10057;DHT22;5068;51.286;7.518;2023-04-26T07:03:14;2.70;61.40
10057;DHT22;5068;51.286;7.518;2023-04-26T07:04:48;2.80;61.20
10057;DHT22;5068;51.286;7.518;2023-04-26T07:06:22;2.80;61.00
10057;DHT22;5068;51.286;7.518;2023-04-26T07:07:57;3.00;61.30
10057;DHT22;5068;51.286;7.518;2023-04-26T07:09:31;3.00;61.20
10057;DHT22;5068;51.286;7.518;2023-04-26T07:11:08;3.10;61.10
10057;DHT22;5068;51.286;7.518;2023-04-26T07:12:42;3.20;60.90
10057;DHT22;5068;51.286;7.518;2023-04-26T07:14:15;3.30;60.80
10057;DHT22;5068;51.286;7.518;2023-04-26T07:15:49;3.30;60.80
10057;DHT22;5068;51.286;7.518;2023-04-26T07:17:23;3.40;60.70
10057;DHT22;5068;51.286;7.518;2023-04-26T07:18:56;3.50;60.60
10057;DHT22;5068;51.286;7.518;2023-04-26T07:20:29;3.50;60.40
10057;DHT22;5068;51.286;7.518;2023-04-26T07:22:02;3.70;60.30
10057;DHT22;5068;51.286;7.518;2023-04-26T07:23:37;3.70;59.90
10057;DHT22;5068;51.286;7.518;2023-04-26T07:25:15;3.80;59.80
10057;DHT22;5068;51.286;7.518;2023-04-26T07:26:52;3.80;59.70
10057;DHT22;5068;51.286;7.518;2023-04-26T07:28:25;3.90;59.70
10057;DHT22;5068;51.286;7.518;2023-04-26T07:29:58;3.90;59.30
10057;DHT22;5068;51.286;7.518;2023-04-26T07:31:31;4.00;59.10
10057;DHT22;5068;51.286;7.518;2023-04-26T07:33:05;4.10;58.90
10057;DHT22;5068;51.286;7.518;2023-04-26T07:34:38;4.10;58.40
10057;DHT22;5068;51.286;7.518;2023-04-26T07:36:12;4.20;58.20
10057;DHT22;5068;51.286;7.518;2023-04-26T07:37:45;4.20;58.00
10057;DHT22;5068;51.286;7.518;2023-04-26T07:39:20;4.30;57.80
10057;DHT22;5068;51.286;7.518;2023-04-26T07:40:54;4.30;57.50
10057;DHT22;5068;51.286;7.518;2023-04-26T07:42:28;4.40;57.10
10057;DHT22;5068;51.286;7.518;2023-04-26T07:44:01;4.40;57.00
10057;DHT22;5068;51.286;7.518;2023-04-26T07:45:35;4.40;56.70
10057;DHT22;5068;51.286;7.518;2023-04-26T07:47:12;4.50;56.30
10057;DHT22;5068;51.286;7.518;2023-04-26T07:48:45;4.50;56.20
10057;DHT22;5068;51.286;7.518;2023-04-26T07:50:19;4.50;56.10
10057;DHT22;5068;51.286;7.518;2023-04-26T07:51:52;4.60;56.20
10057;DHT22;5068;51.286;7.518;2023-04-26T07:53:27;4.60;56.20
10057;DHT22;5068;51.286;7.518;2023-04-26T07:55:01;4.70;56.00
10057;DHT22;5068;51.286;7.518;2023-04-26T07:56:34;4.80;55.80
10057;DHT22;5068;51.286;7.518;2023-04-26T07:58:08;4.90;55.80
10057;DHT22;5068;51.286;7.518;2023-04-26T07:59:45;4.90;55.60
10057;DHT22;5068;51.286;7.518;2023-04-26T08:01:18;5.00;55.50
10057;DHT22;5068;51.286;7.518;2023-04-26T08:02:51;5.10;55.50
10057;DHT22;5068;51.286;7.518;2023-04-26T08:04:32;5.20;55.40
10057;DHT22;5068;51.286;7.518;2023-04-26T08:06:06;5.30;54.90
10057;DHT22;5068;51.286;7.518;2023-04-26T08:07:40;5.40;54.40
10057;DHT22;5068;51.286;7.518;2023-04-26T08:09:14;5.50;53.30
10057;DHT22;5068;51.286;7.518;2023-04-26T08:10:49;5.60;52.90
10057;DHT22;5068;51.286;7.518;2023-04-26T08:12:22;5.70;52.60
10057;DHT22;5068;51.286;7.518;2023-04-26T08:13:56;5.80;52.50
10057;DHT22;5068;51.286;7.518;2023-04-26T08:15:29;5.80;52.10
10057;DHT22;5068;51.286;7.518;2023-04-26T08:17:03;5.90;51.80
10057;DHT22;5068;51.286;7.518;2023-04-26T08:18:37;5.90;51.50
10057;DHT22;5068;51.286;7.518;2023-04-26T08:20:11;6.00;51.30
10057;DHT22;5068;51.286;7.518;2023-04-26T08:21:44;6.00;51.10
10057;DHT22;5068;51.286;7.518;2023-04-26T08:23:18;6.10;51.10
10057;DHT22;5068;51.286;7.518;2023-04-26T08:24:53;6.10;50.90
10057;DHT22;5068;51.286;7.518;2023-04-26T08:26:28;6.20;50.70
10057;DHT22;5068;51.286;7.518;2023-04-26T08:28:02;6.20;50.70
10057;DHT22;5068;51.286;7.518;2023-04-26T08:29:35;6.20;50.80
10057;DHT22;5068;51.286;7.518;2023-04-26T08:31:08;6.30;51.30
10057;DHT22;5068;51.286;7.518;2023-04-26T08:32:42;6.30;50.50
10057;DHT22;5068;51.286;7.518;2023-04-26T08:34:16;6.30;50.30
10057;DHT22;5068;51.286;7.518;2023-04-26T08:35:49;6.40;50.10
10057;DHT22;5068;51.286;7.518;2023-04-26T08:37:22;6.40;49.90
10057;DHT22;5068;51.286;7.518;2023-04-26T08:38:57;6.30;49.50
10057;DHT22;5068;51.286;7.518;2023-04-26T08:40:31;6.40;49.30
10057;DHT22;5068;51.286;7.518;2023-04-26T08:42:12;6.40;49.50
10057;DHT22;5068;51.286;7.518;2023-04-26T08:43:47;6.40;49.50
10057;DHT22;5068;51.286;7.518;2023-04-26T08:45:23;6.50;49.80
10057;DHT22;5068;51.286;7.518;2023-04-26T08:47:02;6.50;49.70
10057;DHT22;5068;51.286;7.518;2023-04-26T08:48:38;6.50;49.20
10057;DHT22;5068;51.286;7.518;2023-04-26T08:50:14;6.50;49.20
10057;DHT22;5068;51.286;7.518;2023-04-26T08:51:49;6.50;49.20
10057;DHT22;5068;51.286;7.518;2023-04-26T08:53:23;6.60;49.60
10057;DHT22;5068;51.286;7.518;2023-04-26T08:54:58;6.60;49.70
10057;DHT22;5068;51.286;7.518;2023-04-26T08:56:32;6.60;49.70
10057;DHT22;5068;51.286;7.518;2023-04-26T08:58:09;6.70;49.60
10057;DHT22;5068;51.286;7.518;2023-04-26T08:59:43;6.70;49.20
10057;DHT22;5068;51.286;7.518;2023-04-26T09:01:17;6.80;48.80
10057;DHT22;5068;51.286;7.518;2023-04-26T09:02:52;6.80;48.60
10057;DHT22;5068;51.286;7.518;2023-04-26T09:04:29;6.90;48.60
10057;DHT22;5068;51.286;7.518;2023-04-26T09:06:05;6.90;48.70
10057;DHT22;5068;51.286;7.518;2023-04-26T09:07:43;7.00;48.60
10057;DHT22;5068;51.286;7.518;2023-04-26T09:09:18;7.00;48.10
10057;DHT22;5068;51.286;7.518;2023-04-26T09:10:53;7.10;48.20
10057;DHT22;5068;51.286;7.518;2023-04-26T09:12:26;7.20;48.20
10057;DHT22;5068;51.286;7.518;2023-04-26T09:14:01;7.30;47.90
10057;DHT22;5068;51.286;7.518;2023-04-26T09:15:34;7.30;47.50
10057;DHT22;5068;51.286;7.518;2023-04-26T09:17:23;7.40;47.20
10057;DHT22;5068;51.286;7.518;2023-04-26T09:18:57;7.40;46.60
10057;DHT22;5068;51.286;7.518;2023-04-26T09:20:30;7.50;47.20
10057;DHT22;5068;51.286;7.518;2023-04-26T09:22:03;7.50;46.80
10057;DHT22;5068;51.286;7.518;2023-04-26T09:23:55;7.60;46.50
10057;DHT22;5068;51.286;7.518;2023-04-26T09:25:30;7.60;45.70
10057;DHT22;5068;51.286;7.518;2023-04-26T09:27:04;7.60;46.10
10057;DHT22;5068;51.286;7.518;2023-04-26T09:28:37;7.60;46.10
10057;DHT22;5068;51.286;7.518;2023-04-26T09:30:14;7.60;46.00
10057;DHT22;5068;51.286;7.518;2023-04-26T09:31:49;7.70;45.70
10057;DHT22;5068;51.286;7.518;2023-04-26T09:33:22;7.70;45.70
10057;DHT22;5068;51.286;7.518;2023-04-26T09:34:55;7.70;45.70
10057;DHT22;5068;51.286;7.518;2023-04-26T09:36:28;7.70;45.70
10057;DHT22;5068;51.286;7.518;2023-04-26T09:38:04;7.70;45.50
10057;DHT22;5068;51.286;7.518;2023-04-26T09:39:43;7.70;45.50
10057;DHT22;5068;51.286;7.518;2023-04-26T09:41:16;7.70;45.60
10057;DHT22;5068;51.286;7.518;2023-04-26T09:42:57;7.70;45.50
10057;DHT22;5068;51.286;7.518;2023-04-26T09:44:32;7.70;45.10
10057;DHT22;5068;51.286;7.518;2023-04-26T09:46:06;7.80;45.40
10057;DHT22;5068;51.286;7.518;2023-04-26T09:47:40;7.80;45.20
10057;DHT22;5068;51.286;7.518;2023-04-26T09:49:13;7.80;45.10
10057;DHT22;5068;51.286;7.518;2023-04-26T09:50:47;7.80;45.50
10057;DHT22;5068;51.286;7.518;2023-04-26T09:52:22;7.80;45.20
10057;DHT22;5068;51.286;7.518;2023-04-26T09:53:56;7.80;45.00
10057;DHT22;5068;51.286;7.518;2023-04-26T09:55:30;7.80;44.50
10057;DHT22;5068;51.286;7.518;2023-04-26T09:57:06;7.80;44.80
10057;DHT22;5068;51.286;7.518;2023-04-26T09:58:57;7.80;44.20
10057;DHT22;5068;51.286;7.518;2023-04-26T10:00:31;7.90;43.50
10057;DHT22;5068;51.286;7.518;2023-04-26T10:02:12;7.90;44.10
10057;DHT22;5068;51.286;7.518;2023-04-26T10:03:48;7.90;43.90
10057;DHT22;5068;51.286;7.518;2023-04-26T10:05:22;7.90;43.80
10057;DHT22;5068;51.286;7.518;2023-04-26T10:06:56;7.90;43.70
10057;DHT22;5068;51.286;7.518;2023-04-26T10:08:30;8.00;43.50
10057;DHT22;5068;51.286;7.518;2023-04-26T10:10:05;8.00;43.40
10057;DHT22;5068;51.286;7.518;2023-04-26T10:11:39;8.00;43.50
10057;DHT22;5068;51.286;7.518;2023-04-26T10:13:14;8.10;43.30
10057;DHT22;5068;51.286;7.518;2023-04-26T10:14:48;8.10;43.00
10057;DHT22;5068;51.286;7.518;2023-04-26T10:16:21;8.10;43.00